sensor_id;sensor_type;location;lat;lon;timestamp;pressure;altitude;pressure_sealevel;temperature
68127;BMP180;54931;52.098;21.006;2023-02-13T00:01:08;101915.60;;;3.40
68127;BMP180;54931;52.098;21.006;2023-02-13T00:03:38;101919.00;;;3.40
68127;BMP180;54931;52.098;21.006;2023-02-13T00:06:08;101921.00;;;3.40
68127;BMP180;54931;52.098;21.006;2023-02-13T00:08:38;101920.40;;;3.40
68127;BMP180;54931;52.098;21.006;2023-02-13T00:11:08;101907.40;;;3.40
68127;BMP180;54931;52.098;21.006;2023-02-13T00:13:37;101910.80;;;3.40
68127;BMP180;54931;52.098;21.006;2023-02-13T00:16:06;101917.20;;;3.48
68127;BMP180;54931;52.098;21.006;2023-02-13T00:18:36;101925.40;;;3.50
68127;BMP180;54931;52.098;21.006;2023-02-13T00:21:13;101918.80;;;3.50
68127;BMP180;54931;52.098;21.006;2023-02-13T00:23:41;101918.20;;;3.50
68127;BMP180;54931;52.098;21.006;2023-02-13T00:26:14;101916.80;;;3.50
68127;BMP180;54931;52.098;21.006;2023-02-13T00:28:43;101914.00;;;3.50
68127;BMP180;54931;52.098;21.006;2023-02-13T00:31:20;101918.00;;;3.54
68127;BMP180;54931;52.098;21.006;2023-02-13T00:33:48;101918.00;;;3.58
68127;BMP180;54931;52.098;21.006;2023-02-13T00:36:21;101918.80;;;3.58
68127;BMP180;54931;52.098;21.006;2023-02-13T00:38:49;101909.00;;;3.60
68127;BMP180;54931;52.098;21.006;2023-02-13T00:41:17;101894.20;;;3.60
68127;BMP180;54931;52.098;21.006;2023-02-13T00:43:47;101892.00;;;3.60
68127;BMP180;54931;52.098;21.006;2023-02-13T00:46:16;101889.80;;;3.60
68127;BMP180;54931;52.098;21.006;2023-02-13T00:48:45;101895.40;;;3.60
68127;BMP180;54931;52.098;21.006;2023-02-13T00:51:13;101899.40;;;3.60
68127;BMP180;54931;52.098;21.006;2023-02-13T00:53:41;101905.40;;;3.60
68127;BMP180;54931;52.098;21.006;2023-02-13T00:56:08;101907.60;;;3.60
68127;BMP180;54931;52.098;21.006;2023-02-13T00:58:37;101906.20;;;3.60
68127;BMP180;54931;52.098;21.006;2023-02-13T01:01:05;101911.20;;;3.60
68127;BMP180;54931;52.098;21.006;2023-02-13T01:03:33;101908.20;;;3.60
68127;BMP180;54931;52.098;21.006;2023-02-13T01:06:01;101910.00;;;3.60
68127;BMP180;54931;52.098;21.006;2023-02-13T01:08:29;101906.20;;;3.60
68127;BMP180;54931;52.098;21.006;2023-02-13T01:10:57;101907.40;;;3.60
68127;BMP180;54931;52.098;21.006;2023-02-13T01:13:25;101904.00;;;3.60
68127;BMP180;54931;52.098;21.006;2023-02-13T01:15:53;101901.40;;;3.60
68127;BMP180;54931;52.098;21.006;2023-02-13T01:18:22;101900.40;;;3.60
68127;BMP180;54931;52.098;21.006;2023-02-13T01:21:21;101897.60;;;3.60
68127;BMP180;54931;52.098;21.006;2023-02-13T01:23:50;101895.20;;;3.62
68127;BMP180;54931;52.098;21.006;2023-02-13T01:26:22;101890.60;;;3.64
68127;BMP180;54931;52.098;21.006;2023-02-13T01:28:54;101881.00;;;3.64
68127;BMP180;54931;52.098;21.006;2023-02-13T01:31:24;101880.60;;;3.62
68127;BMP180;54931;52.098;21.006;2023-02-13T01:33:56;101885.80;;;3.62
68127;BMP180;54931;52.098;21.006;2023-02-13T01:36:25;101891.60;;;3.62
68127;BMP180;54931;52.098;21.006;2023-02-13T01:38:56;101894.80;;;3.62
68127;BMP180;54931;52.098;21.006;2023-02-13T01:41:26;101895.80;;;3.64
68127;BMP180;54931;52.098;21.006;2023-02-13T01:43:58;101888.00;;;3.70
68127;BMP180;54931;52.098;21.006;2023-02-13T01:46:37;101890.20;;;3.70
68127;BMP180;54931;52.098;21.006;2023-02-13T01:49:22;101887.80;;;3.70
68127;BMP180;54931;52.098;21.006;2023-02-13T01:51:55;101883.20;;;3.70
68127;BMP180;54931;52.098;21.006;2023-02-13T01:54:28;101887.00;;;3.70
68127;BMP180;54931;52.098;21.006;2023-02-13T01:57:10;101889.60;;;3.70
68127;BMP180;54931;52.098;21.006;2023-02-13T01:59:50;101881.00;;;3.70
68127;BMP180;54931;52.098;21.006;2023-02-13T02:02:20;101882.80;;;3.70
68127;BMP180;54931;52.098;21.006;2023-02-13T02:04:50;101883.40;;;3.70
68127;BMP180;54931;52.098;21.006;2023-02-13T02:07:25;101886.40;;;3.70
68127;BMP180;54931;52.098;21.006;2023-02-13T02:10:02;101888.40;;;3.70
68127;BMP180;54931;52.098;21.006;2023-02-13T02:15:05;101884.00;;;3.70
68127;BMP180;54931;52.098;21.006;2023-02-13T02:17:33;101882.00;;;3.70
68127;BMP180;54931;52.098;21.006;2023-02-13T02:29:00;101875.60;;;3.74
68127;BMP180;54931;52.098;21.006;2023-02-13T02:34:44;101877.20;;;3.80
68127;BMP180;54931;52.098;21.006;2023-02-13T02:43:19;101878.00;;;3.82
68127;BMP180;54931;52.098;21.006;2023-02-13T02:46:02;101875.80;;;3.84
68127;BMP180;54931;52.098;21.006;2023-02-13T02:48:43;101877.00;;;3.80
68127;BMP180;54931;52.098;21.006;2023-02-13T02:52:05;101881.00;;;3.90
68127;BMP180;54931;52.098;21.006;2023-02-13T02:54:48;101882.80;;;3.86
68127;BMP180;54931;52.098;21.006;2023-02-13T02:57:48;101884.40;;;3.90
68127;BMP180;54931;52.098;21.006;2023-02-13T03:00:40;101888.80;;;3.90
68127;BMP180;54931;52.098;21.006;2023-02-13T03:03:29;101892.40;;;3.90
68127;BMP180;54931;52.098;21.006;2023-02-13T03:06:29;101890.80;;;3.90
68127;BMP180;54931;52.098;21.006;2023-02-13T03:09:09;101893.60;;;3.90
68127;BMP180;54931;52.098;21.006;2023-02-13T03:11:57;101895.60;;;3.90
68127;BMP180;54931;52.098;21.006;2023-02-13T03:14:44;101887.00;;;3.90
68127;BMP180;54931;52.098;21.006;2023-02-13T03:17:15;101888.20;;;3.90
68127;BMP180;54931;52.098;21.006;2023-02-13T03:20:14;101888.20;;;3.90
68127;BMP180;54931;52.098;21.006;2023-02-13T03:23:11;101889.00;;;3.90
68127;BMP180;54931;52.098;21.006;2023-02-13T03:29:08;101882.80;;;3.90
68127;BMP180;54931;52.098;21.006;2023-02-13T03:31:56;101884.20;;;3.90
68127;BMP180;54931;52.098;21.006;2023-02-13T03:34:37;101887.20;;;3.90
68127;BMP180;54931;52.098;21.006;2023-02-13T03:37:42;101886.20;;;3.90
68127;BMP180;54931;52.098;21.006;2023-02-13T03:40:35;101881.80;;;3.90
68127;BMP180;54931;52.098;21.006;2023-02-13T03:43:35;101882.00;;;3.90
68127;BMP180;54931;52.098;21.006;2023-02-13T03:46:06;101878.00;;;3.90
68127;BMP180;54931;52.098;21.006;2023-02-13T03:48:39;101878.40;;;3.90
68127;BMP180;54931;52.098;21.006;2023-02-13T03:51:38;101878.40;;;3.86
68127;BMP180;54931;52.098;21.006;2023-02-13T03:54:31;101879.40;;;3.88
68127;BMP180;54931;52.098;21.006;2023-02-13T03:57:21;101877.20;;;3.90
68127;BMP180;54931;52.098;21.006;2023-02-13T04:00:12;101879.40;;;3.84
68127;BMP180;54931;52.098;21.006;2023-02-13T04:03:21;101883.00;;;3.90
68127;BMP180;54931;52.098;21.006;2023-02-13T04:06:19;101878.40;;;3.88
68127;BMP180;54931;52.098;21.006;2023-02-13T04:08:47;101884.00;;;3.90
68127;BMP180;54931;52.098;21.006;2023-02-13T04:11:34;101883.20;;;3.90
68127;BMP180;54931;52.098;21.006;2023-02-13T04:14:12;101889.00;;;3.90
68127;BMP180;54931;52.098;21.006;2023-02-13T04:16:46;101878.80;;;3.90
68127;BMP180;54931;52.098;21.006;2023-02-13T04:19:17;101879.20;;;3.90
68127;BMP180;54931;52.098;21.006;2023-02-13T04:21:55;101884.40;;;3.90
68127;BMP180;54931;52.098;21.006;2023-02-13T04:24:26;101879.60;;;3.90
68127;BMP180;54931;52.098;21.006;2023-02-13T04:26:54;101878.40;;;3.90
68127;BMP180;54931;52.098;21.006;2023-02-13T04:29:25;101874.40;;;3.90
68127;BMP180;54931;52.098;21.006;2023-02-13T04:31:53;101879.40;;;3.90
68127;BMP180;54931;52.098;21.006;2023-02-13T04:34:21;101879.60;;;3.90
68127;BMP180;54931;52.098;21.006;2023-02-13T04:36:49;101875.00;;;3.90
68127;BMP180;54931;52.098;21.006;2023-02-13T04:39:17;101866.20;;;3.90
68127;BMP180;54931;52.098;21.006;2023-02-13T04:41:46;101875.60;;;3.90
68127;BMP180;54931;52.098;21.006;2023-02-13T04:44:14;101879.20;;;3.90
68127;BMP180;54931;52.098;21.006;2023-02-13T04:46:42;101874.00;;;3.90
68127;BMP180;54931;52.098;21.006;2023-02-13T04:49:10;101877.40;;;3.90
68127;BMP180;54931;52.098;21.006;2023-02-13T04:51:38;101876.40;;;3.92
68127;BMP180;54931;52.098;21.006;2023-02-13T04:54:06;101874.00;;;4.00
68127;BMP180;54931;52.098;21.006;2023-02-13T04:56:34;101873.80;;;3.98
68127;BMP180;54931;52.098;21.006;2023-02-13T04:59:02;101867.60;;;3.98
68127;BMP180;54931;52.098;21.006;2023-02-13T05:01:29;101872.80;;;4.00
68127;BMP180;54931;52.098;21.006;2023-02-13T05:03:57;101873.20;;;4.00
68127;BMP180;54931;52.098;21.006;2023-02-13T05:06:25;101878.20;;;4.00
68127;BMP180;54931;52.098;21.006;2023-02-13T05:08:52;101878.60;;;3.98
68127;BMP180;54931;52.098;21.006;2023-02-13T05:11:20;101863.40;;;4.00
68127;BMP180;54931;52.098;21.006;2023-02-13T05:13:48;101872.00;;;4.00
68127;BMP180;54931;52.098;21.006;2023-02-13T05:16:16;101869.00;;;4.00
68127;BMP180;54931;52.098;21.006;2023-02-13T05:18:43;101869.80;;;4.00
68127;BMP180;54931;52.098;21.006;2023-02-13T05:21:11;101874.60;;;4.00
68127;BMP180;54931;52.098;21.006;2023-02-13T05:23:58;101881.00;;;4.00
68127;BMP180;54931;52.098;21.006;2023-02-13T05:26:25;101881.20;;;4.00
68127;BMP180;54931;52.098;21.006;2023-02-13T05:28:53;101881.60;;;4.00
68127;BMP180;54931;52.098;21.006;2023-02-13T05:31:40;101879.80;;;4.00
68127;BMP180;54931;52.098;21.006;2023-02-13T05:34:07;101872.00;;;4.00
68127;BMP180;54931;52.098;21.006;2023-02-13T05:36:35;101880.00;;;4.00
68127;BMP180;54931;52.098;21.006;2023-02-13T05:39:03;101881.20;;;4.00
68127;BMP180;54931;52.098;21.006;2023-02-13T05:41:31;101883.20;;;4.00
68127;BMP180;54931;52.098;21.006;2023-02-13T05:43:59;101888.60;;;4.00
68127;BMP180;54931;52.098;21.006;2023-02-13T05:46:27;101889.60;;;3.98
68127;BMP180;54931;52.098;21.006;2023-02-13T05:48:55;101887.80;;;4.00
68127;BMP180;54931;52.098;21.006;2023-02-13T05:51:23;101890.20;;;4.00
68127;BMP180;54931;52.098;21.006;2023-02-13T05:53:51;101889.80;;;4.00
68127;BMP180;54931;52.098;21.006;2023-02-13T05:56:18;101894.20;;;4.00
68127;BMP180;54931;52.098;21.006;2023-02-13T05:58:46;101895.20;;;4.00
68127;BMP180;54931;52.098;21.006;2023-02-13T06:01:14;101903.40;;;4.00
68127;BMP180;54931;52.098;21.006;2023-02-13T06:03:42;101906.40;;;4.00
68127;BMP180;54931;52.098;21.006;2023-02-13T06:06:09;101906.60;;;4.00
68127;BMP180;54931;52.098;21.006;2023-02-13T06:08:37;101902.80;;;4.00
68127;BMP180;54931;52.098;21.006;2023-02-13T06:11:05;101904.20;;;4.00
68127;BMP180;54931;52.098;21.006;2023-02-13T06:13:33;101908.80;;;4.00
68127;BMP180;54931;52.098;21.006;2023-02-13T06:16:01;101899.80;;;4.00
68127;BMP180;54931;52.098;21.006;2023-02-13T06:18:28;101901.00;;;4.00
68127;BMP180;54931;52.098;21.006;2023-02-13T06:20:56;101904.40;;;4.00
68127;BMP180;54931;52.098;21.006;2023-02-13T06:23:26;101894.80;;;4.02
68127;BMP180;54931;52.098;21.006;2023-02-13T06:25:54;101895.20;;;4.02
68127;BMP180;54931;52.098;21.006;2023-02-13T06:28:22;101899.40;;;4.04
68127;BMP180;54931;52.098;21.006;2023-02-13T06:30:50;101898.60;;;4.00
68127;BMP180;54931;52.098;21.006;2023-02-13T06:33:18;101895.80;;;4.00
68127;BMP180;54931;52.098;21.006;2023-02-13T06:35:45;101902.60;;;4.00
68127;BMP180;54931;52.098;21.006;2023-02-13T06:38:13;101904.40;;;4.02
68127;BMP180;54931;52.098;21.006;2023-02-13T06:40:41;101900.60;;;4.06
68127;BMP180;54931;52.098;21.006;2023-02-13T06:43:09;101911.40;;;4.08
68127;BMP180;54931;52.098;21.006;2023-02-13T06:45:37;101901.00;;;4.06
68127;BMP180;54931;52.098;21.006;2023-02-13T06:48:05;101900.00;;;4.10
68127;BMP180;54931;52.098;21.006;2023-02-13T06:50:34;101901.00;;;4.10
68127;BMP180;54931;52.098;21.006;2023-02-13T06:53:02;101904.80;;;4.10
68127;BMP180;54931;52.098;21.006;2023-02-13T06:55:29;101916.00;;;4.10
68127;BMP180;54931;52.098;21.006;2023-02-13T06:57:57;101911.80;;;4.10
68127;BMP180;54931;52.098;21.006;2023-02-13T07:00:25;101913.00;;;4.10
68127;BMP180;54931;52.098;21.006;2023-02-13T07:02:53;101913.40;;;4.10
68127;BMP180;54931;52.098;21.006;2023-02-13T07:05:21;101915.60;;;4.20
68127;BMP180;54931;52.098;21.006;2023-02-13T07:07:48;101917.60;;;4.20
68127;BMP180;54931;52.098;21.006;2023-02-13T07:10:16;101914.80;;;4.20
68127;BMP180;54931;52.098;21.006;2023-02-13T07:12:45;101918.60;;;4.20
68127;BMP180;54931;52.098;21.006;2023-02-13T07:15:12;101917.80;;;4.22
68127;BMP180;54931;52.098;21.006;2023-02-13T07:17:40;101910.60;;;4.30
68127;BMP180;54931;52.098;21.006;2023-02-13T07:20:09;101903.80;;;4.30
68127;BMP180;54931;52.098;21.006;2023-02-13T07:22:37;101894.60;;;4.30
68127;BMP180;54931;52.098;21.006;2023-02-13T07:25:06;101894.60;;;4.30
68127;BMP180;54931;52.098;21.006;2023-02-13T07:27:34;101905.20;;;4.40
68127;BMP180;54931;52.098;21.006;2023-02-13T07:30:02;101905.60;;;4.50
68127;BMP180;54931;52.098;21.006;2023-02-13T07:32:31;101896.40;;;4.60
68127;BMP180;54931;52.098;21.006;2023-02-13T07:34:59;101900.60;;;4.70
68127;BMP180;54931;52.098;21.006;2023-02-13T07:37:29;101895.20;;;4.90
68127;BMP180;54931;52.098;21.006;2023-02-13T07:39:58;101891.60;;;5.10
68127;BMP180;54931;52.098;21.006;2023-02-13T07:42:26;101897.40;;;5.42
68127;BMP180;54931;52.098;21.006;2023-02-13T07:44:53;101895.40;;;5.80
68127;BMP180;54931;52.098;21.006;2023-02-13T07:47:21;101907.80;;;6.10
68127;BMP180;54931;52.098;21.006;2023-02-13T07:49:49;101912.00;;;6.00
68127;BMP180;54931;52.098;21.006;2023-02-13T07:52:17;101915.40;;;5.80
68127;BMP180;54931;52.098;21.006;2023-02-13T07:54:45;101914.00;;;5.74
68127;BMP180;54931;52.098;21.006;2023-02-13T07:57:16;101913.20;;;5.70
68127;BMP180;54931;52.098;21.006;2023-02-13T07:59:44;101905.80;;;5.60
68127;BMP180;54931;52.098;21.006;2023-02-13T08:02:13;101916.20;;;5.50
68127;BMP180;54931;52.098;21.006;2023-02-13T08:04:42;101919.20;;;5.42
68127;BMP180;54931;52.098;21.006;2023-02-13T08:07:14;101907.40;;;5.34
68127;BMP180;54931;52.098;21.006;2023-02-13T08:09:44;101905.60;;;5.24
68127;BMP180;54931;52.098;21.006;2023-02-13T08:12:34;101911.60;;;5.20
68127;BMP180;54931;52.098;21.006;2023-02-13T08:15:03;101910.60;;;5.20
68127;BMP180;54931;52.098;21.006;2023-02-13T08:17:32;101909.20;;;5.20
68127;BMP180;54931;52.098;21.006;2023-02-13T08:20:00;101906.20;;;5.20
68127;BMP180;54931;52.098;21.006;2023-02-13T08:22:28;101901.20;;;5.20
68127;BMP180;54931;52.098;21.006;2023-02-13T08:24:56;101905.00;;;5.10
68127;BMP180;54931;52.098;21.006;2023-02-13T08:27:24;101904.00;;;5.10
68127;BMP180;54931;52.098;21.006;2023-02-13T08:29:53;101895.80;;;5.10
68127;BMP180;54931;52.098;21.006;2023-02-13T08:32:22;101895.60;;;5.20
68127;BMP180;54931;52.098;21.006;2023-02-13T08:34:50;101886.80;;;5.10
68127;BMP180;54931;52.098;21.006;2023-02-13T08:37:18;101890.00;;;5.20
68127;BMP180;54931;52.098;21.006;2023-02-13T08:39:46;101887.20;;;5.20
68127;BMP180;54931;52.098;21.006;2023-02-13T08:42:14;101887.40;;;5.30
68127;BMP180;54931;52.098;21.006;2023-02-13T08:44:43;101889.80;;;5.32
68127;BMP180;54931;52.098;21.006;2023-02-13T08:47:11;101888.40;;;5.42
68127;BMP180;54931;52.098;21.006;2023-02-13T08:49:39;101893.40;;;5.50
68127;BMP180;54931;52.098;21.006;2023-02-13T08:52:09;101886.80;;;5.60
68127;BMP180;54931;52.098;21.006;2023-02-13T08:54:37;101884.20;;;5.70
68127;BMP180;54931;52.098;21.006;2023-02-13T08:57:05;101880.20;;;5.80
68127;BMP180;54931;52.098;21.006;2023-02-13T08:59:33;101876.20;;;5.80
68127;BMP180;54931;52.098;21.006;2023-02-13T09:02:02;101873.20;;;6.00
68127;BMP180;54931;52.098;21.006;2023-02-13T09:04:30;101865.20;;;6.48
68127;BMP180;54931;52.098;21.006;2023-02-13T09:06:58;101865.40;;;6.98
68127;BMP180;54931;52.098;21.006;2023-02-13T09:09:26;101876.00;;;7.20
68127;BMP180;54931;52.098;21.006;2023-02-13T09:11:54;101880.00;;;7.14
68127;BMP180;54931;52.098;21.006;2023-02-13T09:14:24;101871.80;;;6.96
68127;BMP180;54931;52.098;21.006;2023-02-13T09:16:52;101875.40;;;6.80
68127;BMP180;54931;52.098;21.006;2023-02-13T09:19:20;101879.00;;;6.60
68127;BMP180;54931;52.098;21.006;2023-02-13T09:21:48;101879.60;;;6.50
68127;BMP180;54931;52.098;21.006;2023-02-13T09:24:17;101878.60;;;6.38
68127;BMP180;54931;52.098;21.006;2023-02-13T09:26:45;101875.00;;;6.20
68127;BMP180;54931;52.098;21.006;2023-02-13T09:29:13;101880.00;;;6.10
68127;BMP180;54931;52.098;21.006;2023-02-13T09:31:41;101867.40;;;6.12
68127;BMP180;54931;52.098;21.006;2023-02-13T09:34:09;101879.60;;;6.40
68127;BMP180;54931;52.098;21.006;2023-02-13T09:36:36;101874.00;;;6.50
68127;BMP180;54931;52.098;21.006;2023-02-13T09:39:04;101872.60;;;6.50
68127;BMP180;54931;52.098;21.006;2023-02-13T09:41:38;101883.20;;;6.36
68127;BMP180;54931;52.098;21.006;2023-02-13T09:47:06;101873.60;;;6.02
68127;BMP180;54931;52.098;21.006;2023-02-13T09:49:42;101866.80;;;5.94
68127;BMP180;54931;52.098;21.006;2023-02-13T09:52:11;101871.60;;;5.90
68127;BMP180;54931;52.098;21.006;2023-02-13T09:54:39;101869.40;;;5.88
68127;BMP180;54931;52.098;21.006;2023-02-13T09:57:26;101866.60;;;5.80
68127;BMP180;54931;52.098;21.006;2023-02-13T10:00:06;101875.60;;;5.80
68127;BMP180;54931;52.098;21.006;2023-02-13T10:05:45;101877.00;;;5.90
68127;BMP180;54931;52.098;21.006;2023-02-13T10:08:58;101875.40;;;5.90
68127;BMP180;54931;52.098;21.006;2023-02-13T10:11:58;101880.20;;;5.90
68127;BMP180;54931;52.098;21.006;2023-02-13T10:17:44;101890.00;;;5.80
68127;BMP180;54931;52.098;21.006;2023-02-13T10:20:33;101888.60;;;5.70
68127;BMP180;54931;52.098;21.006;2023-02-13T10:23:34;101899.60;;;5.60
68127;BMP180;54931;52.098;21.006;2023-02-13T10:26:10;101895.40;;;5.50
68127;BMP180;54931;52.098;21.006;2023-02-13T10:28:47;101894.80;;;5.56
68127;BMP180;54931;52.098;21.006;2023-02-13T10:31:38;101898.40;;;5.60
68127;BMP180;54931;52.098;21.006;2023-02-13T10:34:14;101895.80;;;5.70
68127;BMP180;54931;52.098;21.006;2023-02-13T10:36:45;101891.40;;;5.80
68127;BMP180;54931;52.098;21.006;2023-02-13T10:39:25;101889.80;;;5.80
68127;BMP180;54931;52.098;21.006;2023-02-13T10:51:12;101870.00;;;5.60
68127;BMP180;54931;52.098;21.006;2023-02-13T10:54:20;101866.80;;;5.50
68127;BMP180;54931;52.098;21.006;2023-02-13T11:02:24;101854.60;;;5.40
68127;BMP180;54931;52.098;21.006;2023-02-13T11:05:45;101850.20;;;5.50
68127;BMP180;54931;52.098;21.006;2023-02-13T11:10:54;101861.00;;;5.44
68127;BMP180;54931;52.098;21.006;2023-02-13T11:13:25;101846.60;;;5.48
68127;BMP180;54931;52.098;21.006;2023-02-13T11:16:06;101848.40;;;5.50
68127;BMP180;54931;52.098;21.006;2023-02-13T11:18:38;101856.80;;;5.50
68127;BMP180;54931;52.098;21.006;2023-02-13T11:21:15;101848.00;;;5.50
68127;BMP180;54931;52.098;21.006;2023-02-13T11:23:52;101849.60;;;5.50
68127;BMP180;54931;52.098;21.006;2023-02-13T11:26:31;101852.40;;;5.50
68127;BMP180;54931;52.098;21.006;2023-02-13T11:29:15;101851.20;;;5.50
68127;BMP180;54931;52.098;21.006;2023-02-13T11:31:44;101848.60;;;5.42
68127;BMP180;54931;52.098;21.006;2023-02-13T11:36:53;101849.60;;;5.40
68127;BMP180;54931;52.098;21.006;2023-02-13T11:39:25;101850.20;;;5.50
68127;BMP180;54931;52.098;21.006;2023-02-13T11:41:53;101853.80;;;5.50
68127;BMP180;54931;52.098;21.006;2023-02-13T11:44:25;101846.80;;;5.60
68127;BMP180;54931;52.098;21.006;2023-02-13T11:46:58;101836.60;;;5.60
68127;BMP180;54931;52.098;21.006;2023-02-13T11:49:30;101835.40;;;5.62
68127;BMP180;54931;52.098;21.006;2023-02-13T11:52:03;101828.40;;;5.70
68127;BMP180;54931;52.098;21.006;2023-02-13T11:57:35;101823.80;;;5.90
68127;BMP180;54931;52.098;21.006;2023-02-13T12:00:33;101827.40;;;5.90
68127;BMP180;54931;52.098;21.006;2023-02-13T12:03:33;101812.00;;;5.80
68127;BMP180;54931;52.098;21.006;2023-02-13T12:08:41;101818.40;;;5.90
68127;BMP180;54931;52.098;21.006;2023-02-13T12:11:30;101802.20;;;6.00
68127;BMP180;54931;52.098;21.006;2023-02-13T12:14:01;101802.60;;;6.00
68127;BMP180;54931;52.098;21.006;2023-02-13T12:16:47;101804.60;;;6.00
68127;BMP180;54931;52.098;21.006;2023-02-13T12:19:32;101795.80;;;5.90
68127;BMP180;54931;52.098;21.006;2023-02-13T12:26:02;101788.40;;;5.76
68127;BMP180;54931;52.098;21.006;2023-02-13T12:28:19;101774.40;;;5.70
68127;BMP180;54931;52.098;21.006;2023-02-13T12:31:01;101781.00;;;5.70
68127;BMP180;54931;52.098;21.006;2023-02-13T12:45:40;101775.60;;;5.70
68127;BMP180;54931;52.098;21.006;2023-02-13T12:51:40;101770.60;;;5.88
68127;BMP180;54931;52.098;21.006;2023-02-13T13:00:21;101760.60;;;6.00
68127;BMP180;54931;52.098;21.006;2023-02-13T13:15:13;101742.20;;;6.10
68127;BMP180;54931;52.098;21.006;2023-02-13T13:23:20;101729.60;;;6.10
68127;BMP180;54931;52.098;21.006;2023-02-13T13:28:40;101726.40;;;6.10
68127;BMP180;54931;52.098;21.006;2023-02-13T13:31:11;101713.40;;;6.10
68127;BMP180;54931;52.098;21.006;2023-02-13T13:33:44;101713.60;;;6.20
68127;BMP180;54931;52.098;21.006;2023-02-13T13:36:50;101714.40;;;6.20
68127;BMP180;54931;52.098;21.006;2023-02-13T13:48:48;101723.40;;;5.90
68127;BMP180;54931;52.098;21.006;2023-02-13T13:51:18;101719.60;;;5.80
68127;BMP180;54931;52.098;21.006;2023-02-13T14:11:04;101713.40;;;5.70
68127;BMP180;54931;52.098;21.006;2023-02-13T14:13:36;101705.00;;;5.70
68127;BMP180;54931;52.098;21.006;2023-02-13T14:16:10;101709.00;;;5.72
68127;BMP180;54931;52.098;21.006;2023-02-13T14:18:45;101717.00;;;5.70
68127;BMP180;54931;52.098;21.006;2023-02-13T14:21:22;101718.00;;;5.70
68127;BMP180;54931;52.098;21.006;2023-02-13T14:23:51;101719.20;;;5.70
68127;BMP180;54931;52.098;21.006;2023-02-13T14:26:33;101713.80;;;5.70
68127;BMP180;54931;52.098;21.006;2023-02-13T14:29:26;101704.00;;;5.70
68127;BMP180;54931;52.098;21.006;2023-02-13T14:32:19;101691.00;;;5.70
68127;BMP180;54931;52.098;21.006;2023-02-13T14:35:26;101690.60;;;5.60
68127;BMP180;54931;52.098;21.006;2023-02-13T14:37:58;101696.40;;;5.60
68127;BMP180;54931;52.098;21.006;2023-02-13T14:40:50;101692.40;;;5.54
68127;BMP180;54931;52.098;21.006;2023-02-13T14:43:34;101692.20;;;5.50
68127;BMP180;54931;52.098;21.006;2023-02-13T14:46:28;101705.00;;;5.50
68127;BMP180;54931;52.098;21.006;2023-02-13T14:49:06;101701.60;;;5.50
68127;BMP180;54931;52.098;21.006;2023-02-13T14:51:45;101708.60;;;5.50
68127;BMP180;54931;52.098;21.006;2023-02-13T14:57:02;101700.00;;;5.50
68127;BMP180;54931;52.098;21.006;2023-02-13T14:59:39;101700.40;;;5.50
68127;BMP180;54931;52.098;21.006;2023-02-13T15:02:32;101701.60;;;5.50
68127;BMP180;54931;52.098;21.006;2023-02-13T15:05:09;101697.20;;;5.50
68127;BMP180;54931;52.098;21.006;2023-02-13T15:07:48;101699.00;;;5.50
68127;BMP180;54931;52.098;21.006;2023-02-13T15:10:48;101693.20;;;5.50
68127;BMP180;54931;52.098;21.006;2023-02-13T15:13:25;101689.00;;;5.50
68127;BMP180;54931;52.098;21.006;2023-02-13T15:16:02;101696.80;;;5.50
68127;BMP180;54931;52.098;21.006;2023-02-13T15:18:51;101693.80;;;5.46
68127;BMP180;54931;52.098;21.006;2023-02-13T15:21:22;101686.60;;;5.40
68127;BMP180;54931;52.098;21.006;2023-02-13T15:23:54;101694.20;;;5.40
68127;BMP180;54931;52.098;21.006;2023-02-13T15:26:25;101690.40;;;5.40
68127;BMP180;54931;52.098;21.006;2023-02-13T15:29:15;101683.80;;;5.40
68127;BMP180;54931;52.098;21.006;2023-02-13T15:31:43;101676.60;;;5.40
68127;BMP180;54931;52.098;21.006;2023-02-13T15:34:28;101665.20;;;5.40
68127;BMP180;54931;52.098;21.006;2023-02-13T15:36:59;101657.20;;;5.40
68127;BMP180;54931;52.098;21.006;2023-02-13T15:39:30;101663.80;;;5.30
68127;BMP180;54931;52.098;21.006;2023-02-13T15:42:01;101657.80;;;5.30
68127;BMP180;54931;52.098;21.006;2023-02-13T15:44:38;101649.20;;;5.30
68127;BMP180;54931;52.098;21.006;2023-02-13T15:47:17;101634.60;;;5.24
68127;BMP180;54931;52.098;21.006;2023-02-13T15:49:48;101630.60;;;5.20
68127;BMP180;54931;52.098;21.006;2023-02-13T15:52:31;101646.80;;;5.20
68127;BMP180;54931;52.098;21.006;2023-02-13T15:55:01;101648.40;;;5.16
68127;BMP180;54931;52.098;21.006;2023-02-13T15:57:30;101664.20;;;5.10
68127;BMP180;54931;52.098;21.006;2023-02-13T16:00:00;101662.20;;;5.10
68127;BMP180;54931;52.098;21.006;2023-02-13T16:02:44;101666.40;;;5.10
68127;BMP180;54931;52.098;21.006;2023-02-13T16:05:15;101687.80;;;5.10
68127;BMP180;54931;52.098;21.006;2023-02-13T16:07:54;101685.60;;;5.10
68127;BMP180;54931;52.098;21.006;2023-02-13T16:10:31;101679.40;;;5.10
68127;BMP180;54931;52.098;21.006;2023-02-13T16:13:05;101691.80;;;5.10
68127;BMP180;54931;52.098;21.006;2023-02-13T16:15:36;101680.80;;;5.00
68127;BMP180;54931;52.098;21.006;2023-02-13T16:18:17;101679.20;;;5.02
68127;BMP180;54931;52.098;21.006;2023-02-13T16:20:53;101684.20;;;5.00
68127;BMP180;54931;52.098;21.006;2023-02-13T16:23:22;101676.60;;;5.00
68127;BMP180;54931;52.098;21.006;2023-02-13T16:25:51;101670.60;;;5.00
68127;BMP180;54931;52.098;21.006;2023-02-13T16:28:24;101680.80;;;5.00
68127;BMP180;54931;52.098;21.006;2023-02-13T16:30:59;101676.80;;;5.00
68127;BMP180;54931;52.098;21.006;2023-02-13T16:33:39;101677.80;;;5.00
68127;BMP180;54931;52.098;21.006;2023-02-13T16:38:42;101680.80;;;4.96
68127;BMP180;54931;52.098;21.006;2023-02-13T16:43:55;101692.60;;;4.92
68127;BMP180;54931;52.098;21.006;2023-02-13T16:46:40;101686.20;;;4.92
68127;BMP180;54931;52.098;21.006;2023-02-13T16:52:18;101691.20;;;4.92
68127;BMP180;54931;52.098;21.006;2023-02-13T16:54:54;101686.60;;;4.90
68127;BMP180;54931;52.098;21.006;2023-02-13T16:57:32;101688.20;;;4.90
68127;BMP180;54931;52.098;21.006;2023-02-13T17:00:18;101695.60;;;4.90